createdAt,value
2022-11-18T00:00:01.040Z,12.20
2022-11-18T00:02:46.760Z,11.90
2022-11-18T00:05:32.315Z,11.80
2022-11-18T00:08:19.438Z,11.80
2022-11-18T00:11:05.460Z,11.70
2022-11-18T00:14:09.527Z,12.20
2022-11-18T00:16:55.857Z,12.20
2022-11-18T00:19:41.215Z,12.30
2022-11-18T00:22:29.867Z,12.30
2022-11-18T00:25:17.232Z,12.40
2022-11-18T00:28:03.063Z,12.40
2022-11-18T00:30:48.804Z,12.70
2022-11-18T00:33:34.850Z,12.70
2022-11-18T00:36:20.310Z,12.50
2022-11-18T00:39:06.106Z,12.50
2022-11-18T00:42:12.094Z,12.40
2022-11-18T00:44:57.488Z,12.40
2022-11-18T00:47:43.190Z,12.40
2022-11-18T00:50:29.192Z,12.20
2022-11-18T00:53:14.764Z,12.30
2022-11-18T00:56:00.816Z,12.40
2022-11-18T00:58:47.754Z,12.00
2022-11-18T01:01:33.360Z,12.10
2022-11-18T01:04:19.122Z,12.10
2022-11-18T01:07:04.704Z,12.30
2022-11-18T01:09:50.244Z,12.10
2022-11-18T01:12:54.697Z,12.00
2022-11-18T01:15:42.171Z,12.00
2022-11-18T01:18:29.966Z,11.90
2022-11-18T01:21:15.307Z,12.00
2022-11-18T01:24:00.661Z,12.10
2022-11-18T01:26:45.875Z,12.00
2022-11-18T01:29:31.137Z,12.20
2022-11-18T01:32:24.395Z,12.30
2022-11-18T01:35:11.272Z,12.20
2022-11-18T01:37:56.926Z,12.40
2022-11-18T01:40:42.713Z,12.30
2022-11-18T01:43:46.983Z,11.90
2022-11-18T01:46:33.843Z,12.20
2022-11-18T01:49:20.910Z,12.30
2022-11-18T01:52:06.327Z,12.40
2022-11-18T01:54:55.434Z,12.60
2022-11-18T01:57:41.235Z,12.60
2022-11-18T02:00:26.588Z,12.60
2022-11-18T02:03:12.278Z,12.80
2022-11-18T02:05:59.951Z,12.60
2022-11-18T02:08:45.939Z,12.70
2022-11-18T02:11:51.186Z,12.90
2022-11-18T02:14:38.191Z,12.80
2022-11-18T02:17:28.791Z,12.80
2022-11-18T02:20:27.493Z,12.60
2022-11-18T02:23:35.503Z,12.90
2022-11-18T02:26:45.885Z,12.90
2022-11-18T02:29:37.926Z,13.00
2022-11-18T02:32:25.134Z,12.90
2022-11-18T02:35:14.814Z,12.90
2022-11-18T02:38:02.362Z,12.80
2022-11-18T02:40:49.408Z,12.80
2022-11-18T02:43:37.789Z,12.90
2022-11-18T02:46:27.646Z,13.10
2022-11-18T02:49:16.287Z,13.30
2022-11-18T02:52:02.822Z,13.00
2022-11-18T02:54:49.096Z,13.10
2022-11-18T02:57:35.552Z,13.10
2022-11-18T03:00:21.164Z,13.20
2022-11-18T03:03:23.604Z,13.10
2022-11-18T03:06:13.597Z,13.30
2022-11-18T03:09:02.868Z,13.40
2022-11-18T03:11:51.613Z,13.50
2022-11-18T03:14:40.560Z,13.50
2022-11-18T03:17:32.331Z,13.40
2022-11-18T03:20:22.071Z,13.30
2022-11-18T03:23:12.119Z,13.50
2022-11-18T03:25:59.357Z,13.40
2022-11-18T03:28:46.569Z,13.20
2022-11-18T03:31:35.455Z,13.30
2022-11-18T03:34:23.316Z,13.30
2022-11-18T03:37:11.978Z,13.30
2022-11-18T03:39:59.848Z,13.20
2022-11-18T03:42:48.024Z,13.40
2022-11-18T03:45:35.967Z,13.60
2022-11-18T03:48:23.941Z,13.40
2022-11-18T03:51:10.787Z,13.50
2022-11-18T03:54:00.134Z,13.30
2022-11-18T03:56:48.599Z,13.50
2022-11-18T03:59:36.447Z,13.50
2022-11-18T04:02:23.210Z,13.30
2022-11-18T04:05:10.355Z,13.50
2022-11-18T04:07:57.695Z,13.40
2022-11-18T04:10:47.197Z,13.40
2022-11-18T04:13:33.799Z,13.20
2022-11-18T04:16:19.493Z,13.10
2022-11-18T04:19:18.437Z,13.20
2022-11-18T04:22:04.265Z,13.20
2022-11-18T04:24:49.885Z,13.10
2022-11-18T04:27:36.817Z,13.10
2022-11-18T04:30:22.486Z,13.10
2022-11-18T04:33:08.384Z,13.10
2022-11-18T04:35:53.880Z,13.10
2022-11-18T04:38:39.711Z,13.00
2022-11-18T04:41:45.267Z,13.30
2022-11-18T04:44:32.564Z,13.10
2022-11-18T04:47:17.926Z,13.10
2022-11-18T04:50:04.135Z,13.10
2022-11-18T04:52:49.937Z,13.00
2022-11-18T04:55:35.691Z,12.80
2022-11-18T04:58:21.377Z,12.80
2022-11-18T05:01:08.759Z,12.70
2022-11-18T05:03:55.009Z,12.70
2022-11-18T05:06:40.425Z,12.70
2022-11-18T05:09:31.567Z,12.60
2022-11-18T05:12:36.766Z,12.50
2022-11-18T05:15:25.539Z,12.30
2022-11-18T05:18:12.298Z,12.40
2022-11-18T05:20:57.798Z,12.50
2022-11-18T05:23:43.659Z,12.50
2022-11-18T05:26:29.567Z,12.30
2022-11-18T05:29:15.310Z,12.50
2022-11-18T05:32:01.697Z,12.60
2022-11-18T05:34:48.485Z,12.40
2022-11-18T05:37:34.008Z,12.30
2022-11-18T05:40:20.214Z,12.50
2022-11-18T05:43:11.739Z,12.30
2022-11-18T05:45:57.914Z,12.30
2022-11-18T05:48:43.498Z,12.40
2022-11-18T05:51:30.620Z,12.50
2022-11-18T05:54:17.441Z,12.50
2022-11-18T05:57:03.007Z,12.40
2022-11-18T05:59:48.631Z,12.30
2022-11-18T06:02:34.356Z,12.20
2022-11-18T06:05:20.540Z,12.20
2022-11-18T06:08:08.790Z,12.20
2022-11-18T06:10:54.785Z,12.20
2022-11-18T06:13:42.263Z,12.30
2022-11-18T06:16:29.450Z,12.30
2022-11-18T06:19:16.116Z,12.00
2022-11-18T06:22:02.350Z,11.90
2022-11-18T06:24:50.294Z,11.90
2022-11-18T06:27:35.920Z,11.90
2022-11-18T06:30:21.517Z,11.90
2022-11-18T06:33:07.085Z,12.00
2022-11-18T06:35:52.789Z,12.10
2022-11-18T06:38:38.745Z,12.00
2022-11-18T06:41:25.622Z,11.90
2022-11-18T06:44:11.259Z,11.90
2022-11-18T06:46:56.483Z,11.90
2022-11-18T06:49:42.297Z,12.00
2022-11-18T06:52:27.890Z,11.90
2022-11-18T06:55:13.575Z,11.80
2022-11-18T06:58:01.081Z,11.90
2022-11-18T07:00:47.029Z,11.50
2022-11-18T07:03:32.605Z,11.70
2022-11-18T07:06:19.884Z,11.80
2022-11-18T07:09:06.771Z,11.90
2022-11-18T07:11:52.083Z,11.80
2022-11-18T07:14:39.451Z,11.70
2022-11-18T07:17:25.470Z,11.70
2022-11-18T07:20:11.596Z,11.70
2022-11-18T07:22:57.344Z,11.90
2022-11-18T07:25:45.365Z,11.90
2022-11-18T07:28:31.762Z,12.00
2022-11-18T07:31:20.431Z,12.20
2022-11-18T07:34:06.098Z,12.10
2022-11-18T07:36:51.384Z,12.00
2022-11-18T07:39:37.064Z,11.70
2022-11-18T07:42:22.699Z,11.90
2022-11-18T07:45:09.310Z,11.90
2022-11-18T07:47:56.046Z,12.10
2022-11-18T07:50:46.884Z,12.10
2022-11-18T07:53:33.097Z,12.30
2022-11-18T07:56:18.550Z,12.40
2022-11-18T07:59:04.731Z,12.30
2022-11-18T08:01:50.552Z,12.20
2022-11-18T08:04:38.440Z,12.30
2022-11-18T08:07:23.809Z,12.50
2022-11-18T08:10:09.622Z,12.50
2022-11-18T08:12:55.939Z,12.50
2022-11-18T08:15:41.372Z,12.50
2022-11-18T08:18:28.344Z,12.80
2022-11-18T08:21:16.042Z,12.90
2022-11-18T08:24:01.728Z,12.70
2022-11-18T08:26:47.534Z,12.70
2022-11-18T08:29:33.339Z,12.80
2022-11-18T08:32:19.039Z,13.20
2022-11-18T08:35:10.670Z,13.40
2022-11-18T08:37:58.351Z,13.80
2022-11-18T08:40:45.106Z,14.20
2022-11-18T08:43:30.394Z,14.30
2022-11-18T08:46:16.204Z,14.00
2022-11-18T08:49:01.770Z,13.90
2022-11-18T08:51:47.443Z,14.10
2022-11-18T08:54:34.872Z,14.10
2022-11-18T08:57:20.348Z,14.20
2022-11-18T09:00:06.980Z,14.50
2022-11-18T09:02:52.718Z,14.40
2022-11-18T09:05:38.433Z,14.40
2022-11-18T09:08:26.467Z,14.60
2022-11-18T09:11:14.346Z,14.90
2022-11-18T09:14:58.291Z,15.10
2022-11-18T09:17:05.633Z,15.40
2022-11-18T09:19:51.396Z,16.00
2022-11-18T09:22:37.744Z,16.80
2022-11-18T09:25:23.349Z,17.10
2022-11-18T09:28:10.142Z,16.90
2022-11-18T09:30:55.851Z,16.40
2022-11-18T09:33:41.383Z,16.30
2022-11-18T09:36:27.311Z,16.00
2022-11-18T09:39:12.728Z,16.30
2022-11-18T09:42:02.004Z,16.70
2022-11-18T09:44:54.678Z,17.30
2022-11-18T09:47:40.422Z,17.60
2022-11-18T09:50:48.541Z,17.60
2022-11-18T09:53:32.012Z,17.60
2022-11-18T09:56:17.633Z,17.60
2022-11-18T09:59:03.886Z,17.10
2022-11-18T10:01:52.348Z,17.30
2022-11-18T10:04:37.918Z,17.20
2022-11-18T10:07:29.591Z,17.00
2022-11-18T10:10:20.626Z,16.70
2022-11-18T10:13:12.099Z,16.60
2022-11-18T10:16:09.715Z,16.80
2022-11-18T10:19:01.376Z,17.10
2022-11-18T10:21:51.020Z,17.40
2022-11-18T10:24:39.169Z,17.40
2022-11-18T10:27:33.396Z,17.60
2022-11-18T10:30:20.283Z,18.00
2022-11-18T10:33:19.841Z,17.70
2022-11-18T10:36:11.906Z,17.60
2022-11-18T10:39:08.363Z,17.50
2022-11-18T10:41:57.217Z,18.10
2022-11-18T10:44:42.963Z,19.10
2022-11-18T10:47:29.323Z,19.70
2022-11-18T10:50:27.746Z,19.70
2022-11-18T10:53:29.190Z,18.70
2022-11-18T10:56:17.556Z,18.60
2022-11-18T10:59:03.129Z,18.10
2022-11-18T11:01:57.557Z,18.00
2022-11-18T11:04:44.566Z,18.00
2022-11-18T11:07:34.064Z,18.00
2022-11-18T11:10:23.207Z,18.00
2022-11-18T11:13:11.858Z,18.00
2022-11-18T11:15:59.334Z,17.90
2022-11-18T11:18:48.210Z,17.50
2022-11-18T11:21:33.726Z,17.60
2022-11-18T11:24:20.105Z,17.70
2022-11-18T11:30:21.071Z,17.60
2022-11-18T11:33:13.920Z,17.60
2022-11-18T11:36:20.491Z,17.60
2022-11-18T11:39:17.787Z,17.50
2022-11-18T11:42:09.883Z,17.50
2022-11-18T11:45:02.432Z,17.30
2022-11-18T11:47:57.092Z,17.20
2022-11-18T11:51:01.886Z,16.70
2022-11-18T11:54:09.483Z,16.40
2022-11-18T11:56:56.021Z,16.20
2022-11-18T11:59:44.889Z,16.30
2022-11-18T12:02:40.093Z,16.20
2022-11-18T12:05:28.846Z,16.20
2022-11-18T12:08:16.218Z,15.70
2022-11-18T12:11:05.360Z,16.00
2022-11-18T12:13:53.743Z,16.00
2022-11-18T12:16:42.693Z,16.00
2022-11-18T12:19:29.646Z,16.10
2022-11-18T12:22:15.129Z,16.30
2022-11-18T12:25:20.575Z,16.00
2022-11-18T12:28:08.221Z,16.00
2022-11-18T12:31:11.743Z,15.80
2022-11-18T12:33:58.778Z,15.60
2022-11-18T12:36:46.126Z,15.50
2022-11-18T12:39:55.961Z,15.30
2022-11-18T12:43:01.597Z,15.20
2022-11-18T12:45:49.079Z,15.30
2022-11-18T12:48:35.856Z,15.50
2022-11-18T12:51:48.591Z,15.90
2022-11-18T12:54:37.114Z,16.20
2022-11-18T12:57:23.994Z,16.30
2022-11-18T13:00:16.799Z,15.90
2022-11-18T13:03:02.411Z,16.10
2022-11-18T13:05:47.850Z,16.50
2022-11-18T13:08:33.859Z,16.80
2022-11-18T13:11:39.742Z,16.90
2022-11-18T13:14:45.875Z,16.60
2022-11-18T13:17:51.192Z,16.60
2022-11-18T13:20:37.685Z,16.60
2022-11-18T13:23:46.214Z,16.80
2022-11-18T13:26:33.639Z,16.90
2022-11-18T13:29:33.188Z,17.00
2022-11-18T13:32:21.025Z,17.10
2022-11-18T13:35:11.294Z,17.20
2022-11-18T13:37:57.639Z,16.70
2022-11-18T13:41:04.227Z,17.00
2022-11-18T13:43:53.998Z,16.80
2022-11-18T13:46:40.730Z,16.70
2022-11-18T13:49:32.176Z,16.30
2022-11-18T13:52:19.685Z,16.10
2022-11-18T13:55:08.553Z,15.90
2022-11-18T13:57:58.956Z,16.00
2022-11-18T14:00:55.080Z,16.20
2022-11-18T14:03:48.100Z,16.30
2022-11-18T14:06:34.592Z,16.10
2022-11-18T14:09:22.692Z,15.90
2022-11-18T14:12:22.100Z,15.80
2022-11-18T14:15:20.999Z,16.00
2022-11-18T14:18:18.139Z,15.80
2022-11-18T14:21:05.844Z,15.40
2022-11-18T14:23:51.611Z,15.40
2022-11-18T14:26:37.872Z,15.40
2022-11-18T14:29:23.793Z,15.20
2022-11-18T14:32:13.120Z,15.30
2022-11-18T14:35:00.734Z,15.70
2022-11-18T14:37:46.357Z,15.60
2022-11-18T14:40:32.133Z,15.80
2022-11-18T14:43:17.645Z,15.70
2022-11-18T14:46:04.659Z,15.80
2022-11-18T14:48:50.342Z,15.20
2022-11-18T14:51:37.715Z,15.30
2022-11-18T14:54:26.940Z,15.40
2022-11-18T14:57:15.404Z,15.20
2022-11-18T15:00:00.911Z,15.40
2022-11-18T15:02:46.433Z,15.20
2022-11-18T15:05:31.970Z,15.30
2022-11-18T15:08:19.287Z,15.20
2022-11-18T15:11:04.877Z,15.10
2022-11-18T15:13:50.883Z,15.10
2022-11-18T15:16:36.367Z,15.20
2022-11-18T15:19:21.863Z,15.20
2022-11-18T15:22:07.481Z,15.20
2022-11-18T15:24:54.736Z,15.00
2022-11-18T15:27:40.131Z,15.10
2022-11-18T15:30:25.936Z,14.90
2022-11-18T15:33:11.497Z,14.90
2022-11-18T15:35:57.252Z,14.90
2022-11-18T15:38:43.180Z,14.90
2022-11-18T15:41:31.382Z,14.80
2022-11-18T15:44:17.350Z,14.90
2022-11-18T15:47:03.244Z,14.90
2022-11-18T15:49:48.869Z,14.90
2022-11-18T15:52:34.453Z,14.90
2022-11-18T15:55:22.685Z,14.80
2022-11-18T15:58:10.020Z,14.70
2022-11-18T16:00:57.479Z,14.60
2022-11-18T16:03:43.176Z,14.50
2022-11-18T16:06:29.063Z,14.00
2022-11-18T16:09:17.056Z,14.00
2022-11-18T16:12:21.728Z,13.90
2022-11-18T16:15:27.824Z,13.90
2022-11-18T16:18:13.217Z,13.80
2022-11-18T16:20:59.381Z,13.70
2022-11-18T16:23:46.111Z,13.60
2022-11-18T16:26:31.940Z,13.70
2022-11-18T16:29:18.644Z,13.80
2022-11-18T16:32:12.568Z,13.80
2022-11-18T16:35:01.327Z,13.80
2022-11-18T16:37:47.801Z,13.80
2022-11-18T16:40:33.810Z,13.80
2022-11-18T16:43:19.593Z,13.80
2022-11-18T16:46:09.188Z,13.70
2022-11-18T16:48:59.480Z,13.70
2022-11-18T16:51:45.867Z,13.70
2022-11-18T16:54:32.108Z,13.60
2022-11-18T16:57:17.595Z,13.60
2022-11-18T17:00:03.839Z,13.60
2022-11-18T17:02:49.425Z,13.50
2022-11-18T17:05:36.136Z,13.60
2022-11-18T17:08:22.120Z,13.70
2022-11-18T17:11:08.340Z,13.60
2022-11-18T17:13:58.094Z,13.60
2022-11-18T17:16:44.222Z,13.60
2022-11-18T17:19:29.945Z,13.50
2022-11-18T17:22:16.842Z,13.30
2022-11-18T17:25:05.498Z,13.30
2022-11-18T17:27:51.381Z,13.20
2022-11-18T17:30:36.976Z,13.20
2022-11-18T17:33:22.897Z,13.30
2022-11-18T17:36:09.617Z,13.50
2022-11-18T17:39:00.322Z,13.40
2022-11-18T17:42:04.697Z,13.50
2022-11-18T17:44:50.267Z,13.30
2022-11-18T17:47:36.198Z,13.40
2022-11-18T17:50:21.769Z,13.40
2022-11-18T17:53:07.625Z,13.60
2022-11-18T17:55:57.295Z,13.30
2022-11-18T17:58:46.698Z,13.10
2022-11-18T18:01:32.018Z,13.10
2022-11-18T18:04:20.732Z,13.30
2022-11-18T18:07:06.801Z,13.40
2022-11-18T18:09:52.156Z,13.60
2022-11-18T18:12:57.670Z,13.70
2022-11-18T18:15:43.380Z,13.80
2022-11-18T18:18:29.175Z,13.90
2022-11-18T18:21:15.334Z,13.90
2022-11-18T18:24:01.071Z,14.00
2022-11-18T18:26:46.813Z,13.80
2022-11-18T18:29:34.130Z,13.80
2022-11-18T18:32:19.818Z,13.30
2022-11-18T18:35:06.150Z,12.80
2022-11-18T18:37:51.880Z,12.70
2022-11-18T18:40:37.185Z,12.60
2022-11-18T18:43:23.906Z,12.60
2022-11-18T18:46:31.942Z,12.40
2022-11-18T18:49:20.488Z,12.40
2022-11-18T18:52:06.285Z,12.60
2022-11-18T18:54:51.722Z,12.70
2022-11-18T18:57:37.507Z,13.00
2022-11-18T19:00:23.034Z,13.10
2022-11-18T19:03:09.910Z,13.10
2022-11-18T19:06:27.280Z,13.00
2022-11-18T19:09:01.939Z,13.10
2022-11-18T19:12:23.601Z,12.90
2022-11-18T19:15:10.597Z,12.70
2022-11-18T19:17:56.374Z,12.60
2022-11-18T19:20:45.275Z,12.80
2022-11-18T19:26:04.614Z,12.60
2022-11-18T19:28:50.364Z,12.50
2022-11-18T19:31:36.098Z,12.30
2022-11-18T19:34:21.986Z,12.00
2022-11-18T19:37:07.574Z,11.80
2022-11-18T19:39:53.201Z,11.60
2022-11-18T19:42:42.294Z,11.50
2022-11-18T19:45:27.726Z,10.80
2022-11-18T19:48:13.668Z,9.80
2022-11-18T19:51:09.322Z,9.20
2022-11-18T19:53:59.602Z,9.20
2022-11-18T19:56:45.715Z,9.20
2022-11-18T19:59:32.972Z,9.40
2022-11-18T20:02:18.626Z,9.20
2022-11-18T20:05:22.912Z,9.40
2022-11-18T20:08:08.314Z,9.20
2022-11-18T20:10:54.204Z,9.20
2022-11-18T20:13:40.599Z,9.40
2022-11-18T20:16:27.408Z,9.60
2022-11-18T20:19:13.740Z,9.50
2022-11-18T20:21:59.628Z,9.30
2022-11-18T20:24:45.239Z,9.10
2022-11-18T20:27:31.005Z,9.10
2022-11-18T20:30:17.844Z,9.40
2022-11-18T20:33:04.958Z,9.20
2022-11-18T20:35:50.368Z,8.90
2022-11-18T20:38:36.297Z,8.40
2022-11-18T20:41:22.106Z,8.40
2022-11-18T20:44:07.549Z,8.20
2022-11-18T20:46:53.386Z,7.90
2022-11-18T20:49:40.456Z,7.80
2022-11-18T20:52:26.294Z,8.10
2022-11-18T20:55:11.818Z,8.10
2022-11-18T20:57:57.593Z,8.30
2022-11-18T21:00:43.341Z,8.10
2022-11-18T21:03:28.967Z,8.30
2022-11-18T21:06:15.977Z,8.60
2022-11-18T21:09:02.764Z,8.60
2022-11-18T21:11:48.224Z,8.80
2022-11-18T21:14:33.983Z,8.50
2022-11-18T21:17:19.505Z,8.30
2022-11-18T21:20:26.085Z,8.30
2022-11-18T21:23:13.277Z,8.40
2022-11-18T21:26:00.177Z,8.10
2022-11-18T21:28:46.508Z,8.00
2022-11-18T21:31:32.575Z,8.10
2022-11-18T21:34:18.150Z,8.10
2022-11-18T21:37:05.326Z,8.00
2022-11-18T21:39:52.249Z,8.00
2022-11-18T21:42:38.016Z,7.80
2022-11-18T21:45:23.566Z,8.10
2022-11-18T21:48:09.360Z,7.90
2022-11-18T21:50:54.839Z,7.70
2022-11-18T21:53:40.571Z,7.60
2022-11-18T21:56:31.520Z,7.70
2022-11-18T21:59:18.185Z,7.80
2022-11-18T22:03:59.196Z,8.10
2022-11-18T22:06:44.741Z,7.80
2022-11-18T22:09:36.026Z,7.40
2022-11-18T22:12:22.098Z,7.30
2022-11-18T22:15:08.955Z,7.20
2022-11-18T22:17:54.696Z,7.30
2022-11-18T22:20:42.917Z,7.30
2022-11-18T22:23:28.962Z,6.70
2022-11-18T22:26:15.581Z,6.90
2022-11-18T22:29:02.364Z,6.80
2022-11-18T22:31:48.412Z,6.80
2022-11-18T22:34:34.053Z,6.70
2022-11-18T22:37:21.456Z,6.80
2022-11-18T22:40:08.874Z,7.00
2022-11-18T22:42:54.726Z,6.90
2022-11-18T22:45:40.477Z,6.90
2022-11-18T22:48:26.157Z,6.30
2022-11-18T22:51:11.600Z,6.10
2022-11-18T22:57:04.690Z,6.00
2022-11-18T22:59:50.668Z,6.30
2022-11-18T23:02:36.064Z,6.70
2022-11-18T23:05:21.756Z,6.80
2022-11-18T23:08:07.516Z,7.00
2022-11-18T23:11:00.532Z,7.00
2022-11-18T23:14:04.599Z,6.60
2022-11-18T23:16:49.900Z,6.60
2022-11-18T23:19:36.947Z,6.90
2022-11-18T23:22:22.406Z,6.60
2022-11-18T23:25:08.287Z,6.60
2022-11-18T23:27:55.576Z,6.70
2022-11-18T23:30:41.252Z,6.90
2022-11-18T23:33:26.989Z,6.90
2022-11-18T23:36:13.808Z,6.80
2022-11-18T23:38:59.468Z,6.90
2022-11-18T23:41:45.180Z,6.90
2022-11-18T23:44:50.072Z,7.00
2022-11-18T23:47:35.828Z,6.90
2022-11-18T23:50:21.299Z,7.10
2022-11-18T23:53:07.100Z,7.10
2022-11-18T23:55:52.803Z,7.30
2022-11-18T23:58:39.027Z,7.20
